Birds Landing, California
Current Conditions -  °F | °C
As of 11:58 PM on Monday 20 Oct 2014 (Local Time) from KSUU Reporting Station
Clear Clear  
Wind Chill: 56°   Ceiling: Unl
Heat Index: 56°   Visibility: 10mi
Dew Point: 53°   Wind: 7mph
Humidity: 91%   Direction: 250°WSW
Pressure: 30.04"   Gusts: NA
Location:  38.13°N, 121.87°W
Report Text: KSUU 210658Z AUTO 25006KT 10SM CLR 13/12 A3004 RMK AO2 SLP179 T01320117 $
Loading
Personal Weather Stations






























Interactive Weather Map
Tropical Storm Tracking
New forecast layout! Learn more

10-Day Weather Forecast

Advertisements
Track Severe Weather on mobile